sensor_id;sensor_type;location;lat;lon;timestamp;temperature;humidity
29663;DHT22;16578;53.266;7.920;2023-01-19T00:01:35;7.10;77.00
29663;DHT22;16578;53.266;7.920;2023-01-19T00:04:01;7.10;77.00
29663;DHT22;16578;53.266;7.920;2023-01-19T00:06:26;7.10;77.00
29663;DHT22;16578;53.266;7.920;2023-01-19T00:08:52;7.10;77.00
29663;DHT22;16578;53.266;7.920;2023-01-19T00:11:18;7.10;77.00
29663;DHT22;16578;53.266;7.920;2023-01-19T00:13:43;7.10;77.00
29663;DHT22;16578;53.266;7.920;2023-01-19T00:16:17;7.10;76.90
29663;DHT22;16578;53.266;7.920;2023-01-19T00:18:46;7.10;77.00
29663;DHT22;16578;53.266;7.920;2023-01-19T00:21:12;7.10;76.90
29663;DHT22;16578;53.266;7.920;2023-01-19T00:23:41;7.10;76.90
29663;DHT22;16578;53.266;7.920;2023-01-19T00:26:07;7.10;76.90
29663;DHT22;16578;53.266;7.920;2023-01-19T00:28:34;7.10;76.90
29663;DHT22;16578;53.266;7.920;2023-01-19T00:31:00;7.10;76.90
29663;DHT22;16578;53.266;7.920;2023-01-19T00:33:25;7.10;76.90
29663;DHT22;16578;53.266;7.920;2023-01-19T00:35:52;7.20;77.00
29663;DHT22;16578;53.266;7.920;2023-01-19T00:38:19;7.10;76.80
29663;DHT22;16578;53.266;7.920;2023-01-19T00:40:45;7.10;76.90
29663;DHT22;16578;53.266;7.920;2023-01-19T00:43:11;7.20;76.90
29663;DHT22;16578;53.266;7.920;2023-01-19T00:45:37;7.10;76.90
29663;DHT22;16578;53.266;7.920;2023-01-19T00:48:02;7.20;76.90
29663;DHT22;16578;53.266;7.920;2023-01-19T00:50:30;7.20;76.90
29663;DHT22;16578;53.266;7.920;2023-01-19T00:52:56;7.10;76.90
29663;DHT22;16578;53.266;7.920;2023-01-19T00:55:25;7.10;76.80
29663;DHT22;16578;53.266;7.920;2023-01-19T00:57:52;7.10;76.80
29663;DHT22;16578;53.266;7.920;2023-01-19T01:00:18;7.20;76.80
29663;DHT22;16578;53.266;7.920;2023-01-19T01:02:44;7.10;76.70
29663;DHT22;16578;53.266;7.920;2023-01-19T01:05:10;7.20;76.80
29663;DHT22;16578;53.266;7.920;2023-01-19T01:07:36;7.10;76.70
29663;DHT22;16578;53.266;7.920;2023-01-19T01:10:08;7.20;76.70
29663;DHT22;16578;53.266;7.920;2023-01-19T01:12:34;7.10;76.70
29663;DHT22;16578;53.266;7.920;2023-01-19T01:15:00;7.10;76.70
29663;DHT22;16578;53.266;7.920;2023-01-19T01:17:25;7.10;76.70
29663;DHT22;16578;53.266;7.920;2023-01-19T01:19:51;7.10;76.70
29663;DHT22;16578;53.266;7.920;2023-01-19T01:22:17;7.10;76.70
29663;DHT22;16578;53.266;7.920;2023-01-19T01:24:43;7.10;76.80
29663;DHT22;16578;53.266;7.920;2023-01-19T01:27:08;7.10;76.80
29663;DHT22;16578;53.266;7.920;2023-01-19T01:29:34;7.10;76.90
29663;DHT22;16578;53.266;7.920;2023-01-19T01:32:01;7.10;76.80
29663;DHT22;16578;53.266;7.920;2023-01-19T01:34:27;7.10;76.80
29663;DHT22;16578;53.266;7.920;2023-01-19T01:36:52;7.10;76.80
29663;DHT22;16578;53.266;7.920;2023-01-19T01:39:19;7.10;76.80
29663;DHT22;16578;53.266;7.920;2023-01-19T01:41:46;7.10;76.80
29663;DHT22;16578;53.266;7.920;2023-01-19T01:47:29;7.10;76.80
29663;DHT22;16578;53.266;7.920;2023-01-19T01:50:10;7.10;76.90
29663;DHT22;16578;53.266;7.920;2023-01-19T01:52:42;7.00;76.80
29663;DHT22;16578;53.266;7.920;2023-01-19T01:55:09;7.00;76.90
29663;DHT22;16578;53.266;7.920;2023-01-19T01:57:37;7.10;77.00
29663;DHT22;16578;53.266;7.920;2023-01-19T02:00:04;7.10;77.00
29663;DHT22;16578;53.266;7.920;2023-01-19T02:02:31;7.00;77.10
29663;DHT22;16578;53.266;7.920;2023-01-19T02:05:36;7.00;77.00
29663;DHT22;16578;53.266;7.920;2023-01-19T02:08:04;7.00;76.90
29663;DHT22;16578;53.266;7.920;2023-01-19T02:10:50;7.00;77.00
29663;DHT22;16578;53.266;7.920;2023-01-19T02:13:37;7.00;77.00
29663;DHT22;16578;53.266;7.920;2023-01-19T02:16:08;7.00;77.00
29663;DHT22;16578;53.266;7.920;2023-01-19T02:18:34;7.00;77.00
29663;DHT22;16578;53.266;7.920;2023-01-19T02:23:48;7.00;77.00
29663;DHT22;16578;53.266;7.920;2023-01-19T02:26:18;7.00;77.00
29663;DHT22;16578;53.266;7.920;2023-01-19T02:28:48;7.00;77.10
29663;DHT22;16578;53.266;7.920;2023-01-19T02:31:15;7.00;77.00
29663;DHT22;16578;53.266;7.920;2023-01-19T02:33:41;7.00;77.00
29663;DHT22;16578;53.266;7.920;2023-01-19T02:36:09;7.00;77.20
29663;DHT22;16578;53.266;7.920;2023-01-19T02:38:36;7.00;77.10
29663;DHT22;16578;53.266;7.920;2023-01-19T02:41:04;7.00;78.00
29663;DHT22;16578;53.266;7.920;2023-01-19T02:43:31;7.00;77.10
29663;DHT22;16578;53.266;7.920;2023-01-19T02:45:57;7.00;77.20
29663;DHT22;16578;53.266;7.920;2023-01-19T02:48:23;7.00;77.20
29663;DHT22;16578;53.266;7.920;2023-01-19T02:50:52;7.00;78.00
29663;DHT22;16578;53.266;7.920;2023-01-19T02:53:36;7.00;77.20
29663;DHT22;16578;53.266;7.920;2023-01-19T02:56:22;7.00;77.20
29663;DHT22;16578;53.266;7.920;2023-01-19T03:02:33;7.00;77.20
29663;DHT22;16578;53.266;7.920;2023-01-19T03:05:28;7.00;77.20
29663;DHT22;16578;53.266;7.920;2023-01-19T03:18:54;6.90;77.30
29663;DHT22;16578;53.266;7.920;2023-01-19T03:21:24;6.90;77.30
29663;DHT22;16578;53.266;7.920;2023-01-19T03:23:51;6.90;77.30
29663;DHT22;16578;53.266;7.920;2023-01-19T03:26:28;6.90;77.40
29663;DHT22;16578;53.266;7.920;2023-01-19T03:28:57;6.90;77.50
29663;DHT22;16578;53.266;7.920;2023-01-19T03:31:26;6.90;77.50
29663;DHT22;16578;53.266;7.920;2023-01-19T03:33:53;6.90;77.40
29663;DHT22;16578;53.266;7.920;2023-01-19T03:36:26;6.80;77.60
29663;DHT22;16578;53.266;7.920;2023-01-19T03:38:54;6.80;77.40
29663;DHT22;16578;53.266;7.920;2023-01-19T03:41:23;6.90;77.40
29663;DHT22;16578;53.266;7.920;2023-01-19T03:43:51;6.90;77.40
29663;DHT22;16578;53.266;7.920;2023-01-19T03:46:18;6.90;77.50
29663;DHT22;16578;53.266;7.920;2023-01-19T03:48:45;6.90;77.50
29663;DHT22;16578;53.266;7.920;2023-01-19T03:51:11;6.80;77.50
29663;DHT22;16578;53.266;7.920;2023-01-19T03:53:39;6.80;77.60
29663;DHT22;16578;53.266;7.920;2023-01-19T03:56:05;6.80;77.60
29663;DHT22;16578;53.266;7.920;2023-01-19T03:58:31;6.80;77.60
29663;DHT22;16578;53.266;7.920;2023-01-19T04:00:56;6.80;77.60
29663;DHT22;16578;53.266;7.920;2023-01-19T04:03:22;6.80;77.70
29663;DHT22;16578;53.266;7.920;2023-01-19T04:05:47;6.80;77.70
29663;DHT22;16578;53.266;7.920;2023-01-19T04:08:13;6.80;77.70
29663;DHT22;16578;53.266;7.920;2023-01-19T04:10:39;6.80;77.70
29663;DHT22;16578;53.266;7.920;2023-01-19T04:13:04;6.80;77.80
29663;DHT22;16578;53.266;7.920;2023-01-19T04:15:31;6.80;77.80
29663;DHT22;16578;53.266;7.920;2023-01-19T04:17:58;6.80;77.80
29663;DHT22;16578;53.266;7.920;2023-01-19T04:20:24;6.80;77.80
29663;DHT22;16578;53.266;7.920;2023-01-19T04:22:51;6.80;77.80
29663;DHT22;16578;53.266;7.920;2023-01-19T04:25:16;6.80;77.80
29663;DHT22;16578;53.266;7.920;2023-01-19T04:27:42;6.90;77.90
29663;DHT22;16578;53.266;7.920;2023-01-19T04:30:08;6.80;77.80
29663;DHT22;16578;53.266;7.920;2023-01-19T04:32:34;6.90;77.90
29663;DHT22;16578;53.266;7.920;2023-01-19T04:35:00;6.90;77.90
29663;DHT22;16578;53.266;7.920;2023-01-19T04:37:25;6.90;77.90
29663;DHT22;16578;53.266;7.920;2023-01-19T04:39:51;6.90;77.90
29663;DHT22;16578;53.266;7.920;2023-01-19T04:42:16;6.90;77.90
29663;DHT22;16578;53.266;7.920;2023-01-19T04:44:42;6.90;77.90
29663;DHT22;16578;53.266;7.920;2023-01-19T04:47:08;6.90;78.00
29663;DHT22;16578;53.266;7.920;2023-01-19T04:49:33;6.90;78.00
29663;DHT22;16578;53.266;7.920;2023-01-19T04:52:02;6.90;78.00
29663;DHT22;16578;53.266;7.920;2023-01-19T04:54:28;6.90;78.00
29663;DHT22;16578;53.266;7.920;2023-01-19T04:56:54;6.90;78.00
29663;DHT22;16578;53.266;7.920;2023-01-19T04:59:20;6.90;78.00
29663;DHT22;16578;53.266;7.920;2023-01-19T05:01:46;6.90;78.10
29663;DHT22;16578;53.266;7.920;2023-01-19T05:04:11;6.90;78.00
29663;DHT22;16578;53.266;7.920;2023-01-19T05:06:37;6.90;78.00
29663;DHT22;16578;53.266;7.920;2023-01-19T05:09:03;7.00;78.10
29663;DHT22;16578;53.266;7.920;2023-01-19T05:11:29;6.90;78.10
29663;DHT22;16578;53.266;7.920;2023-01-19T05:13:55;7.00;78.20
29663;DHT22;16578;53.266;7.920;2023-01-19T05:16:20;6.90;78.10
29663;DHT22;16578;53.266;7.920;2023-01-19T05:18:46;7.00;78.20
29663;DHT22;16578;53.266;7.920;2023-01-19T05:21:11;6.90;78.10
29663;DHT22;16578;53.266;7.920;2023-01-19T05:23:37;7.00;78.10
29663;DHT22;16578;53.266;7.920;2023-01-19T05:26:03;6.90;78.10
29663;DHT22;16578;53.266;7.920;2023-01-19T05:28:29;6.90;78.20
29663;DHT22;16578;53.266;7.920;2023-01-19T05:30:55;6.90;78.20
29663;DHT22;16578;53.266;7.920;2023-01-19T05:33:21;6.90;78.30
29663;DHT22;16578;53.266;7.920;2023-01-19T05:35:51;7.00;78.30
29663;DHT22;16578;53.266;7.920;2023-01-19T05:38:17;7.00;78.40
29663;DHT22;16578;53.266;7.920;2023-01-19T05:40:43;7.00;78.40
29663;DHT22;16578;53.266;7.920;2023-01-19T05:43:09;7.00;78.40
29663;DHT22;16578;53.266;7.920;2023-01-19T05:45:35;7.00;78.40
29663;DHT22;16578;53.266;7.920;2023-01-19T05:48:12;7.00;78.50
29663;DHT22;16578;53.266;7.920;2023-01-19T05:50:38;7.00;78.50
29663;DHT22;16578;53.266;7.920;2023-01-19T05:53:03;7.00;78.50
29663;DHT22;16578;53.266;7.920;2023-01-19T05:55:29;7.00;78.40
29663;DHT22;16578;53.266;7.920;2023-01-19T05:57:54;7.10;78.50
29663;DHT22;16578;53.266;7.920;2023-01-19T06:00:20;7.10;78.50
29663;DHT22;16578;53.266;7.920;2023-01-19T06:02:45;7.10;78.50
29663;DHT22;16578;53.266;7.920;2023-01-19T06:05:14;7.10;78.50
29663;DHT22;16578;53.266;7.920;2023-01-19T06:07:40;7.10;78.50
29663;DHT22;16578;53.266;7.920;2023-01-19T06:10:06;7.10;78.50
29663;DHT22;16578;53.266;7.920;2023-01-19T06:12:32;7.10;78.50
29663;DHT22;16578;53.266;7.920;2023-01-19T06:14:57;7.10;78.50
29663;DHT22;16578;53.266;7.920;2023-01-19T06:17:23;7.10;78.50
29663;DHT22;16578;53.266;7.920;2023-01-19T06:19:48;7.10;78.40
29663;DHT22;16578;53.266;7.920;2023-01-19T06:22:14;7.10;78.30
29663;DHT22;16578;53.266;7.920;2023-01-19T06:24:39;7.10;78.30
29663;DHT22;16578;53.266;7.920;2023-01-19T06:27:05;7.10;78.30
29663;DHT22;16578;53.266;7.920;2023-01-19T06:29:31;7.10;78.30
29663;DHT22;16578;53.266;7.920;2023-01-19T06:31:56;7.10;78.40
29663;DHT22;16578;53.266;7.920;2023-01-19T06:34:22;7.10;78.30
29663;DHT22;16578;53.266;7.920;2023-01-19T06:36:51;7.10;78.30
29663;DHT22;16578;53.266;7.920;2023-01-19T06:39:16;7.10;78.30
29663;DHT22;16578;53.266;7.920;2023-01-19T06:41:42;7.10;78.30
29663;DHT22;16578;53.266;7.920;2023-01-19T06:44:07;7.10;78.40
29663;DHT22;16578;53.266;7.920;2023-01-19T06:46:33;7.10;78.50
29663;DHT22;16578;53.266;7.920;2023-01-19T06:49:00;7.10;78.50
29663;DHT22;16578;53.266;7.920;2023-01-19T06:51:25;7.20;78.60
29663;DHT22;16578;53.266;7.920;2023-01-19T06:53:51;7.20;78.60
29663;DHT22;16578;53.266;7.920;2023-01-19T06:56:17;7.20;78.50
29663;DHT22;16578;53.266;7.920;2023-01-19T06:58:42;7.20;78.50
29663;DHT22;16578;53.266;7.920;2023-01-19T07:01:08;7.20;79.40
29663;DHT22;16578;53.266;7.920;2023-01-19T07:03:34;7.20;78.60
29663;DHT22;16578;53.266;7.920;2023-01-19T07:06:00;7.20;78.60
29663;DHT22;16578;53.266;7.920;2023-01-19T07:08:31;7.20;78.50
29663;DHT22;16578;53.266;7.920;2023-01-19T07:11:09;7.20;78.60
29663;DHT22;16578;53.266;7.920;2023-01-19T07:13:36;7.20;78.50
29663;DHT22;16578;53.266;7.920;2023-01-19T07:16:06;7.20;78.50
29663;DHT22;16578;53.266;7.920;2023-01-19T07:18:33;7.20;78.40
29663;DHT22;16578;53.266;7.920;2023-01-19T07:20:58;7.20;78.40
29663;DHT22;16578;53.266;7.920;2023-01-19T07:23:24;7.30;78.40
29663;DHT22;16578;53.266;7.920;2023-01-19T07:25:49;7.20;78.40
29663;DHT22;16578;53.266;7.920;2023-01-19T07:28:15;7.20;78.30
29663;DHT22;16578;53.266;7.920;2023-01-19T07:30:44;7.20;78.30
29663;DHT22;16578;53.266;7.920;2023-01-19T07:33:12;7.20;78.40
29663;DHT22;16578;53.266;7.920;2023-01-19T07:35:38;7.20;78.40
29663;DHT22;16578;53.266;7.920;2023-01-19T07:38:04;7.20;78.40
29663;DHT22;16578;53.266;7.920;2023-01-19T07:40:29;7.20;78.30
29663;DHT22;16578;53.266;7.920;2023-01-19T07:42:55;7.10;78.30
29663;DHT22;16578;53.266;7.920;2023-01-19T07:45:20;7.10;78.20
29663;DHT22;16578;53.266;7.920;2023-01-19T07:47:47;7.10;78.20
29663;DHT22;16578;53.266;7.920;2023-01-19T07:50:14;7.10;78.10
29663;DHT22;16578;53.266;7.920;2023-01-19T07:52:41;7.10;78.10
29663;DHT22;16578;53.266;7.920;2023-01-19T07:55:07;7.10;78.20
29663;DHT22;16578;53.266;7.920;2023-01-19T07:57:34;7.00;78.20
29663;DHT22;16578;53.266;7.920;2023-01-19T07:59:59;7.00;78.40
29663;DHT22;16578;53.266;7.920;2023-01-19T08:02:25;7.00;78.40
29663;DHT22;16578;53.266;7.920;2023-01-19T08:04:51;7.00;78.40
29663;DHT22;16578;53.266;7.920;2023-01-19T08:07:17;7.00;78.40
29663;DHT22;16578;53.266;7.920;2023-01-19T08:09:42;7.00;78.40
29663;DHT22;16578;53.266;7.920;2023-01-19T08:12:08;6.90;78.30
29663;DHT22;16578;53.266;7.920;2023-01-19T08:14:34;7.00;78.40
29663;DHT22;16578;53.266;7.920;2023-01-19T08:17:00;6.90;78.50
29663;DHT22;16578;53.266;7.920;2023-01-19T08:19:26;6.90;78.50
29663;DHT22;16578;53.266;7.920;2023-01-19T08:21:52;6.90;78.50
29663;DHT22;16578;53.266;7.920;2023-01-19T08:24:19;6.90;79.00
29663;DHT22;16578;53.266;7.920;2023-01-19T08:26:47;6.90;78.70
29663;DHT22;16578;53.266;7.920;2023-01-19T08:29:13;6.90;79.60
29663;DHT22;16578;53.266;7.920;2023-01-19T08:31:38;6.90;78.70
29663;DHT22;16578;53.266;7.920;2023-01-19T08:34:04;7.00;78.80
29663;DHT22;16578;53.266;7.920;2023-01-19T08:36:30;6.90;78.80
29663;DHT22;16578;53.266;7.920;2023-01-19T08:38:56;7.00;78.90
29663;DHT22;16578;53.266;7.920;2023-01-19T08:41:21;7.00;78.90
29663;DHT22;16578;53.266;7.920;2023-01-19T08:43:48;7.00;79.00
29663;DHT22;16578;53.266;7.920;2023-01-19T08:46:14;7.00;79.00
29663;DHT22;16578;53.266;7.920;2023-01-19T08:48:42;7.00;79.00
29663;DHT22;16578;53.266;7.920;2023-01-19T08:51:11;7.00;79.10
29663;DHT22;16578;53.266;7.920;2023-01-19T08:53:37;7.00;79.20
29663;DHT22;16578;53.266;7.920;2023-01-19T08:56:02;7.10;79.30
29663;DHT22;16578;53.266;7.920;2023-01-19T08:58:28;7.10;79.30
29663;DHT22;16578;53.266;7.920;2023-01-19T09:00:54;7.10;79.30
29663;DHT22;16578;53.266;7.920;2023-01-19T09:03:20;7.20;79.30
29663;DHT22;16578;53.266;7.920;2023-01-19T09:05:47;7.20;79.30
29663;DHT22;16578;53.266;7.920;2023-01-19T09:08:13;7.20;79.30
29663;DHT22;16578;53.266;7.920;2023-01-19T09:10:47;7.20;79.30
29663;DHT22;16578;53.266;7.920;2023-01-19T09:13:13;7.30;79.30
29663;DHT22;16578;53.266;7.920;2023-01-19T09:15:39;7.30;79.10
29663;DHT22;16578;53.266;7.920;2023-01-19T09:18:08;7.30;79.00
29663;DHT22;16578;53.266;7.920;2023-01-19T09:20:38;7.30;79.00
29663;DHT22;16578;53.266;7.920;2023-01-19T09:23:05;7.40;79.00
29663;DHT22;16578;53.266;7.920;2023-01-19T09:25:30;7.40;78.90
29663;DHT22;16578;53.266;7.920;2023-01-19T09:27:58;7.40;78.80
29663;DHT22;16578;53.266;7.920;2023-01-19T09:30:24;7.40;78.80
29663;DHT22;16578;53.266;7.920;2023-01-19T09:32:49;7.40;78.90
29663;DHT22;16578;53.266;7.920;2023-01-19T09:35:15;7.40;79.00
29663;DHT22;16578;53.266;7.920;2023-01-19T09:37:45;7.40;79.10
29663;DHT22;16578;53.266;7.920;2023-01-19T09:40:11;7.40;79.10
29663;DHT22;16578;53.266;7.920;2023-01-19T09:43:11;7.40;79.00
29663;DHT22;16578;53.266;7.920;2023-01-19T09:45:47;7.50;79.10
29663;DHT22;16578;53.266;7.920;2023-01-19T09:50:51;7.50;79.10
29663;DHT22;16578;53.266;7.920;2023-01-19T09:54:12;7.60;79.20
29663;DHT22;16578;53.266;7.920;2023-01-19T09:56:16;7.60;79.20
29663;DHT22;16578;53.266;7.920;2023-01-19T09:58:43;7.60;79.20
29663;DHT22;16578;53.266;7.920;2023-01-19T10:12:42;7.70;79.10
29663;DHT22;16578;53.266;7.920;2023-01-19T10:15:23;7.80;79.30
29663;DHT22;16578;53.266;7.920;2023-01-19T10:18:15;7.80;80.20
29663;DHT22;16578;53.266;7.920;2023-01-19T10:20:47;7.90;79.40
29663;DHT22;16578;53.266;7.920;2023-01-19T10:23:34;7.90;79.50
29663;DHT22;16578;53.266;7.920;2023-01-19T10:26:03;8.00;79.50
29663;DHT22;16578;53.266;7.920;2023-01-19T10:28:30;8.00;79.40
29663;DHT22;16578;53.266;7.920;2023-01-19T10:30:56;8.10;79.40
29663;DHT22;16578;53.266;7.920;2023-01-19T10:33:21;8.10;79.30
29663;DHT22;16578;53.266;7.920;2023-01-19T10:35:47;8.20;79.30
29663;DHT22;16578;53.266;7.920;2023-01-19T10:38:14;8.20;79.40
29663;DHT22;16578;53.266;7.920;2023-01-19T10:41:06;8.20;79.30
29663;DHT22;16578;53.266;7.920;2023-01-19T10:43:38;8.30;79.00
29663;DHT22;16578;53.266;7.920;2023-01-19T10:49:22;8.30;78.80
29663;DHT22;16578;53.266;7.920;2023-01-19T10:51:48;8.30;79.30
29663;DHT22;16578;53.266;7.920;2023-01-19T10:54:14;8.30;78.40
29663;DHT22;16578;53.266;7.920;2023-01-19T10:56:40;8.30;78.00
29663;DHT22;16578;53.266;7.920;2023-01-19T11:02:19;8.30;77.80
29663;DHT22;16578;53.266;7.920;2023-01-19T11:04:46;8.30;77.80
29663;DHT22;16578;53.266;7.920;2023-01-19T11:09:48;8.30;77.70
29663;DHT22;16578;53.266;7.920;2023-01-19T11:12:21;8.30;77.80
29663;DHT22;16578;53.266;7.920;2023-01-19T11:14:48;8.30;77.70
29663;DHT22;16578;53.266;7.920;2023-01-19T11:17:18;8.30;77.60
29663;DHT22;16578;53.266;7.920;2023-01-19T11:19:52;8.30;77.60
29663;DHT22;16578;53.266;7.920;2023-01-19T11:22:26;8.40;77.60
29663;DHT22;16578;53.266;7.920;2023-01-19T11:24:56;8.40;77.60
29663;DHT22;16578;53.266;7.920;2023-01-19T11:27:22;8.40;77.60
29663;DHT22;16578;53.266;7.920;2023-01-19T11:29:59;8.40;77.70
29663;DHT22;16578;53.266;7.920;2023-01-19T11:32:26;8.40;77.80
29663;DHT22;16578;53.266;7.920;2023-01-19T11:34:52;8.40;78.00
29663;DHT22;16578;53.266;7.920;2023-01-19T11:39:57;8.60;78.70
29663;DHT22;16578;53.266;7.920;2023-01-19T11:42:23;8.60;79.00
29663;DHT22;16578;53.266;7.920;2023-01-19T11:45:00;8.80;79.20
29663;DHT22;16578;53.266;7.920;2023-01-19T11:47:43;8.90;79.20
29663;DHT22;16578;53.266;7.920;2023-01-19T11:50:13;9.00;78.90
29663;DHT22;16578;53.266;7.920;2023-01-19T11:52:50;9.10;78.60
29663;DHT22;16578;53.266;7.920;2023-01-19T11:58:15;9.30;77.70
29663;DHT22;16578;53.266;7.920;2023-01-19T12:03:39;9.40;76.90
29663;DHT22;16578;53.266;7.920;2023-01-19T12:06:28;9.40;76.20
29663;DHT22;16578;53.266;7.920;2023-01-19T12:09:02;9.40;75.80
29663;DHT22;16578;53.266;7.920;2023-01-19T12:11:39;9.40;75.70
29663;DHT22;16578;53.266;7.920;2023-01-19T12:14:14;9.30;75.30
29663;DHT22;16578;53.266;7.920;2023-01-19T12:16:42;9.30;75.30
29663;DHT22;16578;53.266;7.920;2023-01-19T12:19:17;9.30;75.30
29663;DHT22;16578;53.266;7.920;2023-01-19T12:21:43;9.20;74.90
29663;DHT22;16578;53.266;7.920;2023-01-19T12:24:39;9.20;74.90
29663;DHT22;16578;53.266;7.920;2023-01-19T12:27:25;9.10;74.60
29663;DHT22;16578;53.266;7.920;2023-01-19T12:29:55;9.10;74.80
29663;DHT22;16578;53.266;7.920;2023-01-19T12:32:32;9.10;74.90
29663;DHT22;16578;53.266;7.920;2023-01-19T12:34:58;9.10;74.50
29663;DHT22;16578;53.266;7.920;2023-01-19T12:37:30;9.10;74.70
29663;DHT22;16578;53.266;7.920;2023-01-19T12:40:24;9.10;74.50
29663;DHT22;16578;53.266;7.920;2023-01-19T12:43:02;9.00;74.10
29663;DHT22;16578;53.266;7.920;2023-01-19T12:45:36;9.00;74.30
29663;DHT22;16578;53.266;7.920;2023-01-19T12:48:04;9.00;74.30
29663;DHT22;16578;53.266;7.920;2023-01-19T12:50:37;9.00;74.20
29663;DHT22;16578;53.266;7.920;2023-01-19T12:53:04;9.00;74.00
29663;DHT22;16578;53.266;7.920;2023-01-19T12:55:36;9.00;74.30
29663;DHT22;16578;53.266;7.920;2023-01-19T12:58:06;9.00;74.30
29663;DHT22;16578;53.266;7.920;2023-01-19T13:00:39;9.00;74.30
29663;DHT22;16578;53.266;7.920;2023-01-19T13:13:28;9.20;72.70
29663;DHT22;16578;53.266;7.920;2023-01-19T13:15:55;9.30;73.30
29663;DHT22;16578;53.266;7.920;2023-01-19T13:18:22;9.30;73.20
29663;DHT22;16578;53.266;7.920;2023-01-19T13:21:01;9.30;73.00
29663;DHT22;16578;53.266;7.920;2023-01-19T13:26:24;9.40;72.40
29663;DHT22;16578;53.266;7.920;2023-01-19T13:28:53;9.50;72.50
29663;DHT22;16578;53.266;7.920;2023-01-19T13:31:19;9.50;72.10
29663;DHT22;16578;53.266;7.920;2023-01-19T13:33:54;9.50;71.50
29663;DHT22;16578;53.266;7.920;2023-01-19T13:36:35;9.50;70.80
29663;DHT22;16578;53.266;7.920;2023-01-19T13:39:10;9.40;70.80
29663;DHT22;16578;53.266;7.920;2023-01-19T13:41:38;9.40;71.50
29663;DHT22;16578;53.266;7.920;2023-01-19T13:46:39;9.30;70.40
29663;DHT22;16578;53.266;7.920;2023-01-19T13:49:35;9.30;70.50
29663;DHT22;16578;53.266;7.920;2023-01-19T13:52:12;9.30;70.10
29663;DHT22;16578;53.266;7.920;2023-01-19T13:54:56;9.20;70.60
29663;DHT22;16578;53.266;7.920;2023-01-19T13:57:30;9.20;70.20
29663;DHT22;16578;53.266;7.920;2023-01-19T14:00:06;9.20;70.40
29663;DHT22;16578;53.266;7.920;2023-01-19T14:02:32;9.20;70.30
29663;DHT22;16578;53.266;7.920;2023-01-19T14:04:57;9.10;70.40
29663;DHT22;16578;53.266;7.920;2023-01-19T14:07:36;9.10;70.40
29663;DHT22;16578;53.266;7.920;2023-01-19T14:10:04;9.10;70.50
29663;DHT22;16578;53.266;7.920;2023-01-19T14:12:30;9.10;70.40
29663;DHT22;16578;53.266;7.920;2023-01-19T14:14:56;9.10;70.20
29663;DHT22;16578;53.266;7.920;2023-01-19T14:17:29;9.10;70.10
29663;DHT22;16578;53.266;7.920;2023-01-19T14:19:58;9.00;69.70
29663;DHT22;16578;53.266;7.920;2023-01-19T14:25:25;8.90;70.00
29663;DHT22;16578;53.266;7.920;2023-01-19T14:30:57;8.90;70.00
29663;DHT22;16578;53.266;7.920;2023-01-19T14:33:40;8.90;70.40
29663;DHT22;16578;53.266;7.920;2023-01-19T14:38:43;8.80;69.90
29663;DHT22;16578;53.266;7.920;2023-01-19T14:41:10;8.80;69.70
29663;DHT22;16578;53.266;7.920;2023-01-19T14:43:36;8.70;69.80
29663;DHT22;16578;53.266;7.920;2023-01-19T14:46:02;8.70;69.80
29663;DHT22;16578;53.266;7.920;2023-01-19T14:48:27;8.70;69.90
29663;DHT22;16578;53.266;7.920;2023-01-19T14:51:03;8.70;70.00
29663;DHT22;16578;53.266;7.920;2023-01-19T14:53:36;8.60;69.90
29663;DHT22;16578;53.266;7.920;2023-01-19T14:56:03;8.60;70.00
29663;DHT22;16578;53.266;7.920;2023-01-19T14:58:32;8.60;69.90
29663;DHT22;16578;53.266;7.920;2023-01-19T15:00:58;8.60;69.90
29663;DHT22;16578;53.266;7.920;2023-01-19T15:03:24;8.50;70.00
29663;DHT22;16578;53.266;7.920;2023-01-19T15:05:52;8.50;70.20
29663;DHT22;16578;53.266;7.920;2023-01-19T15:08:27;8.50;69.90
29663;DHT22;16578;53.266;7.920;2023-01-19T15:10:53;8.40;69.90
29663;DHT22;16578;53.266;7.920;2023-01-19T15:13:21;8.40;70.10
29663;DHT22;16578;53.266;7.920;2023-01-19T15:15:48;8.40;69.90
29663;DHT22;16578;53.266;7.920;2023-01-19T15:18:21;8.40;70.00
29663;DHT22;16578;53.266;7.920;2023-01-19T15:20:48;8.30;69.80
29663;DHT22;16578;53.266;7.920;2023-01-19T15:23:13;8.30;69.90
29663;DHT22;16578;53.266;7.920;2023-01-19T15:25:39;8.30;70.00
29663;DHT22;16578;53.266;7.920;2023-01-19T15:28:11;8.20;69.90
29663;DHT22;16578;53.266;7.920;2023-01-19T15:30:37;8.20;69.80
29663;DHT22;16578;53.266;7.920;2023-01-19T15:33:03;8.20;69.90
29663;DHT22;16578;53.266;7.920;2023-01-19T15:35:28;8.10;69.90
29663;DHT22;16578;53.266;7.920;2023-01-19T15:37:54;8.10;69.90
29663;DHT22;16578;53.266;7.920;2023-01-19T15:40:20;8.10;70.00
29663;DHT22;16578;53.266;7.920;2023-01-19T15:42:47;8.00;70.00
29663;DHT22;16578;53.266;7.920;2023-01-19T15:45:35;8.00;70.10
29663;DHT22;16578;53.266;7.920;2023-01-19T15:48:04;8.00;70.20
29663;DHT22;16578;53.266;7.920;2023-01-19T15:50:30;7.90;70.30
29663;DHT22;16578;53.266;7.920;2023-01-19T15:52:56;7.80;70.40
29663;DHT22;16578;53.266;7.920;2023-01-19T15:55:22;7.80;70.50
29663;DHT22;16578;53.266;7.920;2023-01-19T15:57:47;7.80;70.40
29663;DHT22;16578;53.266;7.920;2023-01-19T16:00:14;7.80;70.40
29663;DHT22;16578;53.266;7.920;2023-01-19T16:02:39;7.80;70.40
29663;DHT22;16578;53.266;7.920;2023-01-19T16:05:06;7.70;70.40
29663;DHT22;16578;53.266;7.920;2023-01-19T16:07:32;7.70;70.50
29663;DHT22;16578;53.266;7.920;2023-01-19T16:09:58;7.70;70.50
29663;DHT22;16578;53.266;7.920;2023-01-19T16:12:24;7.60;70.50
29663;DHT22;16578;53.266;7.920;2023-01-19T16:14:49;7.60;70.50
29663;DHT22;16578;53.266;7.920;2023-01-19T16:17:15;7.60;70.60
29663;DHT22;16578;53.266;7.920;2023-01-19T16:19:40;7.60;70.70
29663;DHT22;16578;53.266;7.920;2023-01-19T16:22:08;7.50;70.70
29663;DHT22;16578;53.266;7.920;2023-01-19T16:24:37;7.50;70.90
29663;DHT22;16578;53.266;7.920;2023-01-19T16:27:02;7.50;70.90
29663;DHT22;16578;53.266;7.920;2023-01-19T16:29:28;7.40;70.90
29663;DHT22;16578;53.266;7.920;2023-01-19T16:31:54;7.40;71.00
29663;DHT22;16578;53.266;7.920;2023-01-19T16:34:20;7.40;71.10
29663;DHT22;16578;53.266;7.920;2023-01-19T16:36:47;7.30;71.10
29663;DHT22;16578;53.266;7.920;2023-01-19T16:39:13;7.30;71.20
29663;DHT22;16578;53.266;7.920;2023-01-19T16:41:39;7.30;71.30
29663;DHT22;16578;53.266;7.920;2023-01-19T16:44:06;7.30;71.40
29663;DHT22;16578;53.266;7.920;2023-01-19T16:46:35;7.30;71.30
29663;DHT22;16578;53.266;7.920;2023-01-19T16:49:05;7.20;71.30
29663;DHT22;16578;53.266;7.920;2023-01-19T16:51:31;7.10;71.50
29663;DHT22;16578;53.266;7.920;2023-01-19T16:53:57;7.20;71.60
29663;DHT22;16578;53.266;7.920;2023-01-19T16:56:22;7.10;71.50
29663;DHT22;16578;53.266;7.920;2023-01-19T16:58:55;7.10;71.60
29663;DHT22;16578;53.266;7.920;2023-01-19T17:01:22;7.10;71.50
29663;DHT22;16578;53.266;7.920;2023-01-19T17:03:48;7.00;71.50
29663;DHT22;16578;53.266;7.920;2023-01-19T17:06:15;7.00;71.50
29663;DHT22;16578;53.266;7.920;2023-01-19T17:08:45;7.00;71.60
29663;DHT22;16578;53.266;7.920;2023-01-19T17:11:13;7.00;71.60